createdAt,value
2018-07-02T00:00:57.843Z,1018.43
2018-07-02T00:01:57.821Z,1018.40
2018-07-02T00:02:57.792Z,1018.42
2018-07-02T00:03:57.767Z,1018.38
2018-07-02T00:04:57.749Z,1018.39
2018-07-02T00:05:57.730Z,1018.34
2018-07-02T00:06:57.697Z,1018.32
2018-07-02T00:07:57.670Z,1018.33
2018-07-02T00:08:57.652Z,1018.35
2018-07-02T00:09:57.618Z,1018.30
2018-07-02T00:10:57.795Z,1018.26
2018-07-02T00:11:57.569Z,1018.28
2018-07-02T00:12:57.545Z,1018.29
2018-07-02T00:13:57.523Z,1018.23
2018-07-02T00:14:57.496Z,1018.25
2018-07-02T00:15:57.678Z,1018.24
2018-07-02T00:16:57.446Z,1018.22
2018-07-02T00:17:57.423Z,1018.27
2018-07-02T00:18:57.395Z,1018.28
2018-07-02T00:19:57.408Z,1018.28
2018-07-02T00:20:57.344Z,1018.25
2018-07-02T00:21:57.319Z,1018.28
2018-07-02T00:22:57.299Z,1018.25
2018-07-02T00:23:57.269Z,1018.25
2018-07-02T00:24:57.253Z,1018.22
2018-07-02T00:25:57.221Z,1018.18
2018-07-02T00:26:57.194Z,1018.22
2018-07-02T00:27:57.172Z,1018.19
2018-07-02T00:28:57.144Z,1018.19
2018-07-02T00:29:57.119Z,1018.18
2018-07-02T00:30:57.098Z,1018.12
2018-07-02T00:31:57.071Z,1018.10
2018-07-02T00:32:57.046Z,1018.10
2018-07-02T00:34:01.067Z,1018.15
2018-07-02T00:34:56.993Z,1018.14
2018-07-02T00:35:56.969Z,1018.13
2018-07-02T00:36:56.945Z,1018.12
2018-07-02T00:37:57.170Z,1018.11
2018-07-02T00:38:56.893Z,1018.12
2018-07-02T00:39:56.870Z,1018.09
2018-07-02T00:40:56.845Z,1018.12
2018-07-02T00:41:56.818Z,1018.18
2018-07-02T00:42:56.792Z,1018.13
2018-07-02T00:43:56.767Z,1018.10
2018-07-02T00:44:56.744Z,1018.13
2018-07-02T00:45:56.721Z,1018.14
2018-07-02T00:46:56.698Z,1018.10
2018-07-02T00:47:56.668Z,1018.08
2018-07-02T00:48:56.645Z,1018.09
2018-07-02T00:49:56.618Z,1018.05
2018-07-02T00:50:56.592Z,1018.05
2018-07-02T00:51:56.568Z,1018.05
2018-07-02T00:52:56.540Z,1018.11
2018-07-02T00:53:56.515Z,1018.09
2018-07-02T00:54:56.489Z,1018.10
2018-07-02T00:55:56.466Z,1018.07
2018-07-02T00:56:56.442Z,1018.08
2018-07-02T00:57:56.416Z,1018.09
2018-07-02T00:58:56.391Z,1018.07
2018-07-02T00:59:56.364Z,1018.07
2018-07-02T01:00:56.342Z,1018.08
2018-07-02T01:01:56.314Z,1018.14
2018-07-02T01:02:56.287Z,1018.09
2018-07-02T01:03:56.263Z,1018.08
2018-07-02T01:04:56.236Z,1018.13
2018-07-02T01:05:56.214Z,1018.13
2018-07-02T01:06:56.191Z,1018.10
2018-07-02T01:07:56.163Z,1018.15
2018-07-02T01:08:56.138Z,1018.18
2018-07-02T01:09:56.115Z,1018.15
2018-07-02T01:10:56.087Z,1018.12
2018-07-02T01:11:56.063Z,1018.10
2018-07-02T01:12:56.035Z,1018.11
2018-07-02T01:13:56.011Z,1018.11
2018-07-02T01:14:56.037Z,1018.10
2018-07-02T01:15:55.959Z,1018.00
2018-07-02T01:16:55.938Z,1018.12
2018-07-02T01:17:55.911Z,1018.11
2018-07-02T01:18:55.884Z,1018.13
2018-07-02T01:19:55.859Z,1018.14
2018-07-02T01:20:55.834Z,1018.11
2018-07-02T01:21:56.012Z,1018.12
2018-07-02T01:22:55.787Z,1018.09
2018-07-02T01:23:55.758Z,1018.11
2018-07-02T01:24:55.731Z,1018.08
2018-07-02T01:25:55.715Z,1018.10
2018-07-02T01:26:55.684Z,1018.06
2018-07-02T01:27:55.654Z,1018.06
2018-07-02T01:28:55.632Z,1018.03
2018-07-02T01:29:55.606Z,1018.01
2018-07-02T01:30:55.582Z,1018.04
2018-07-02T01:31:55.555Z,1018.03
2018-07-02T01:32:55.527Z,1018.04
2018-07-02T01:33:55.506Z,1018.06
2018-07-02T01:34:55.477Z,1018.04
2018-07-02T01:35:55.452Z,1018.11
2018-07-02T01:36:55.428Z,1018.06
2018-07-02T01:37:55.402Z,1018.11
2018-07-02T01:38:55.378Z,1018.12
2018-07-02T01:39:55.351Z,1018.07
2018-07-02T01:40:55.324Z,1018.10
2018-07-02T01:41:55.299Z,1018.07
2018-07-02T01:42:55.272Z,1018.07
2018-07-02T01:43:55.248Z,1018.08
2018-07-02T01:44:55.224Z,1018.09
2018-07-02T01:45:55.199Z,1018.09
2018-07-02T01:46:55.173Z,1018.09
2018-07-02T01:47:55.147Z,1018.05
2018-07-02T01:48:55.122Z,1018.06
2018-07-02T01:49:55.097Z,1018.08
2018-07-02T01:50:55.068Z,1018.07
2018-07-02T01:51:55.043Z,1018.08
2018-07-02T01:52:55.028Z,1018.05
2018-07-02T01:53:54.993Z,1018.04
2018-07-02T01:54:54.965Z,1018.04
2018-07-02T01:55:54.944Z,1018.05
2018-07-02T01:56:54.917Z,1018.04
2018-07-02T01:57:54.893Z,1018.05
2018-07-02T01:58:54.869Z,1018.04
2018-07-02T01:59:54.842Z,1018.06
2018-07-02T02:00:54.823Z,1018.02
2018-07-02T02:01:54.790Z,1018.06
2018-07-02T02:02:54.763Z,1018.02
2018-07-02T02:03:54.738Z,1018.02
2018-07-02T02:04:54.716Z,1018.07
2018-07-02T02:05:54.689Z,1018.08
2018-07-02T02:06:54.663Z,1018.08
2018-07-02T02:07:54.636Z,1018.07
2018-07-02T02:08:54.612Z,1018.04
2018-07-02T02:09:54.586Z,1018.09
2018-07-02T02:10:58.195Z,1018.12
2018-07-02T02:11:54.738Z,1018.09
2018-07-02T02:12:54.511Z,1018.06
2018-07-02T02:13:54.483Z,1018.08
2018-07-02T02:14:54.457Z,1018.06
2018-07-02T02:15:54.431Z,1018.05
2018-07-02T02:16:54.407Z,1018.07
2018-07-02T02:17:54.382Z,1018.09
2018-07-02T02:18:54.356Z,1018.08
2018-07-02T02:19:54.333Z,1018.08
2018-07-02T02:20:54.302Z,1018.05
2018-07-02T02:21:54.282Z,1018.07
2018-07-02T02:22:54.269Z,1018.08
2018-07-02T02:23:54.226Z,1018.07
2018-07-02T02:24:54.201Z,1018.09
2018-07-02T02:25:54.176Z,1018.07
2018-07-02T02:26:54.151Z,1018.06
2018-07-02T02:27:54.124Z,1018.10
2018-07-02T02:28:54.099Z,1018.06
2018-07-02T02:29:54.074Z,1018.11
2018-07-02T02:30:54.048Z,1018.08
2018-07-02T02:31:54.024Z,1018.08
2018-07-02T02:32:53.996Z,1018.06
2018-07-02T02:33:53.969Z,1018.08
2018-07-02T02:34:53.944Z,1018.02
2018-07-02T02:35:53.920Z,1018.01
2018-07-02T02:36:53.895Z,1018.02
2018-07-02T02:37:53.871Z,1017.98
2018-07-02T02:38:53.844Z,1017.98
2018-07-02T02:39:53.816Z,1017.96
2018-07-02T02:40:53.792Z,1017.94
2018-07-02T02:41:53.765Z,1017.91
2018-07-02T02:42:53.739Z,1017.96
2018-07-02T02:43:53.715Z,1017.92
2018-07-02T02:44:53.699Z,1017.98
2018-07-02T02:45:53.662Z,1017.96
2018-07-02T02:46:53.838Z,1017.99
2018-07-02T02:47:53.609Z,1017.93
2018-07-02T02:48:53.789Z,1017.97
2018-07-02T02:49:53.561Z,1018.00
2018-07-02T02:50:53.534Z,1018.00
2018-07-02T02:51:53.508Z,1017.98
2018-07-02T02:52:53.482Z,1017.99
2018-07-02T02:53:53.456Z,1018.00
2018-07-02T02:54:53.429Z,1018.00
2018-07-02T02:55:53.404Z,1018.00
2018-07-02T02:56:53.381Z,1018.01
2018-07-02T02:57:53.353Z,1018.01
2018-07-02T02:58:53.325Z,1017.98
2018-07-02T02:59:53.301Z,1018.00
2018-07-02T03:00:53.276Z,1017.97
2018-07-02T03:01:53.254Z,1018.02
2018-07-02T03:02:53.427Z,1018.02
2018-07-02T03:03:53.206Z,1017.96
2018-07-02T03:04:53.172Z,1018.02
2018-07-02T03:05:53.349Z,1018.04
2018-07-02T03:06:53.322Z,1018.00
2018-07-02T03:07:53.096Z,1017.98
2018-07-02T03:08:53.276Z,1018.01
2018-07-02T03:09:53.057Z,1018.02
2018-07-02T03:10:53.018Z,1017.97
2018-07-02T03:11:52.996Z,1017.96
2018-07-02T03:12:52.968Z,1018.03
2018-07-02T03:13:52.943Z,1017.99
2018-07-02T03:14:52.915Z,1018.05
2018-07-02T03:15:53.097Z,1018.02
2018-07-02T03:16:52.861Z,1018.03
2018-07-02T03:17:52.837Z,1017.97
2018-07-02T03:18:52.816Z,1017.98
2018-07-02T03:19:52.786Z,1018.00
2018-07-02T03:20:52.762Z,1017.98
2018-07-02T03:21:52.735Z,1017.96
2018-07-02T03:22:52.715Z,1017.95
2018-07-02T03:23:52.683Z,1017.94
2018-07-02T03:24:52.654Z,1017.95
2018-07-02T03:25:52.631Z,1017.96
2018-07-02T03:26:52.613Z,1017.99
2018-07-02T03:27:52.580Z,1017.97
2018-07-02T03:28:52.552Z,1018.00
2018-07-02T03:29:52.526Z,1018.02
2018-07-02T03:30:52.500Z,1018.00
2018-07-02T03:31:52.477Z,1018.05
2018-07-02T03:32:52.450Z,1018.04
2018-07-02T03:33:52.426Z,1018.05
2018-07-02T03:34:52.399Z,1018.04
2018-07-02T03:35:52.372Z,1018.03
2018-07-02T03:36:52.348Z,1017.97
2018-07-02T03:37:52.318Z,1017.97
2018-07-02T03:38:52.294Z,1017.98
2018-07-02T03:39:52.268Z,1017.99
2018-07-02T03:40:52.243Z,1018.04
2018-07-02T03:41:52.219Z,1018.14
2018-07-02T03:42:52.193Z,1018.20
2018-07-02T03:43:52.167Z,1018.20
2018-07-02T03:44:52.141Z,1018.25
2018-07-02T03:45:52.114Z,1018.28
2018-07-02T03:46:52.091Z,1018.26
2018-07-02T03:47:52.062Z,1018.24
2018-07-02T03:48:52.040Z,1018.26
2018-07-02T03:49:52.015Z,1018.31
2018-07-02T03:50:51.987Z,1018.30
2018-07-02T03:51:51.963Z,1018.35
2018-07-02T03:52:51.938Z,1018.37
2018-07-02T03:53:51.910Z,1018.41
2018-07-02T03:54:51.884Z,1018.42
2018-07-02T03:55:51.866Z,1018.41
2018-07-02T03:56:51.837Z,1018.44
2018-07-02T03:57:51.812Z,1018.43
2018-07-02T03:58:51.793Z,1018.41
2018-07-02T03:59:51.768Z,1018.44
2018-07-02T04:00:51.736Z,1018.44
2018-07-02T04:01:51.713Z,1018.43
2018-07-02T04:02:51.690Z,1018.47
2018-07-02T04:03:51.665Z,1018.46
2018-07-02T04:04:51.637Z,1018.44
2018-07-02T04:05:51.613Z,1018.42
2018-07-02T04:06:51.588Z,1018.36
2018-07-02T04:07:51.564Z,1018.35
2018-07-02T04:08:51.541Z,1018.34
2018-07-02T04:09:51.723Z,1018.27
2018-07-02T04:10:51.493Z,1018.30
2018-07-02T04:11:51.469Z,1018.27
2018-07-02T04:12:51.444Z,1018.26
2018-07-02T04:13:51.624Z,1018.26
2018-07-02T04:14:51.598Z,1018.27
2018-07-02T04:15:51.372Z,1018.27
2018-07-02T04:16:51.349Z,1018.25
2018-07-02T04:17:51.325Z,1018.26
2018-07-02T04:18:51.301Z,1018.24
2018-07-02T04:19:51.281Z,1018.29
2018-07-02T04:20:51.257Z,1018.26
2018-07-02T04:21:51.235Z,1018.26
2018-07-02T04:22:51.210Z,1018.28
2018-07-02T04:23:51.389Z,1018.30
2018-07-02T04:24:51.364Z,1018.28
2018-07-02T04:25:51.187Z,1018.31
2018-07-02T04:26:51.121Z,1018.35
2018-07-02T04:27:51.093Z,1018.38
2018-07-02T04:28:51.073Z,1018.45
2018-07-02T04:29:51.055Z,1018.47
2018-07-02T04:30:51.027Z,1018.45
2018-07-02T04:31:51.005Z,1018.44
2018-07-02T04:32:50.981Z,1018.42
2018-07-02T04:33:51.162Z,1018.46
2018-07-02T04:34:51.139Z,1018.48
2018-07-02T04:35:50.913Z,1018.46
2018-07-02T04:36:50.891Z,1018.48
2018-07-02T04:37:50.868Z,1018.50
2018-07-02T04:38:50.845Z,1018.53
2018-07-02T04:39:50.823Z,1018.55
2018-07-02T04:40:50.802Z,1018.56
2018-07-02T04:41:50.782Z,1018.55
2018-07-02T04:42:50.962Z,1018.61
2018-07-02T04:43:50.737Z,1018.64
2018-07-02T04:44:50.715Z,1018.65
2018-07-02T04:45:50.698Z,1018.73
2018-07-02T04:46:50.673Z,1018.80
2018-07-02T04:47:50.655Z,1018.88
2018-07-02T04:48:50.628Z,1018.93
2018-07-02T04:49:50.606Z,1018.98
2018-07-02T04:50:50.584Z,1018.98
2018-07-02T04:51:50.563Z,1018.99
2018-07-02T04:52:50.542Z,1019.01
2018-07-02T04:53:50.523Z,1019.15
2018-07-02T04:54:50.503Z,1019.23
2018-07-02T04:55:50.479Z,1019.21
2018-07-02T04:56:50.457Z,1019.15
2018-07-02T04:57:50.436Z,1019.22
2018-07-02T04:58:50.412Z,1019.38
2018-07-02T04:59:50.417Z,1019.63
2018-07-02T05:00:50.377Z,1019.80
2018-07-02T05:01:50.354Z,1020.08
2018-07-02T05:02:50.339Z,1020.70
2018-07-02T05:03:50.313Z,1021.76
2018-07-02T05:04:50.297Z,1022.07
2018-07-02T05:05:50.271Z,1021.02
2018-07-02T05:06:50.252Z,1019.57
2018-07-02T05:07:50.234Z,1019.03
2018-07-02T05:08:50.206Z,1018.93
2018-07-02T05:09:50.388Z,1018.95
2018-07-02T05:10:50.366Z,1018.96
2018-07-02T05:11:50.144Z,1018.91
2018-07-02T05:12:50.332Z,1018.95
2018-07-02T05:13:50.313Z,1019.01
2018-07-02T05:14:50.285Z,1018.98
2018-07-02T05:15:50.267Z,1019.01
2018-07-02T05:16:50.243Z,1019.05
2018-07-02T05:17:50.224Z,1019.05
2018-07-02T05:18:50.007Z,1018.98
2018-07-02T05:19:50.184Z,1018.98
2018-07-02T05:20:49.960Z,1018.95
2018-07-02T05:21:49.945Z,1018.97
2018-07-02T05:22:49.917Z,1018.95
2018-07-02T05:23:49.901Z,1018.96
2018-07-02T05:24:49.880Z,1018.96
2018-07-02T05:25:49.867Z,1018.98
2018-07-02T05:26:49.840Z,1018.97
2018-07-02T05:27:49.820Z,1019.00
2018-07-02T05:28:49.801Z,1019.02
2018-07-02T05:29:49.777Z,1019.02
2018-07-02T05:30:49.760Z,1018.96
2018-07-02T05:31:49.738Z,1019.01
2018-07-02T05:32:49.727Z,1019.02
2018-07-02T05:33:49.701Z,1019.04
2018-07-02T05:34:49.681Z,1019.02
2018-07-02T05:35:49.664Z,1019.05
2018-07-02T05:36:49.660Z,1019.06
2018-07-02T05:37:49.623Z,1019.09
2018-07-02T05:38:49.818Z,1019.10
2018-07-02T05:39:49.583Z,1019.12
2018-07-02T05:40:49.561Z,1019.14
2018-07-02T05:41:49.541Z,1019.18
2018-07-02T05:42:49.522Z,1019.16
2018-07-02T05:43:49.501Z,1019.20
2018-07-02T05:44:49.688Z,1019.21
2018-07-02T05:45:49.667Z,1019.30
2018-07-02T05:46:49.445Z,1019.28
2018-07-02T05:47:49.427Z,1019.28
2018-07-02T05:48:49.407Z,1019.39
2018-07-02T05:49:49.387Z,1019.43
2018-07-02T05:50:49.370Z,1019.45
2018-07-02T05:51:49.349Z,1019.46
2018-07-02T05:52:49.331Z,1019.49
2018-07-02T05:53:49.314Z,1019.51
2018-07-02T05:54:49.304Z,1019.60
2018-07-02T05:55:49.478Z,1019.68
2018-07-02T05:56:49.255Z,1019.77
2018-07-02T05:57:49.237Z,1019.71
2018-07-02T05:58:49.421Z,1019.73
2018-07-02T05:59:49.401Z,1019.72
2018-07-02T06:00:49.386Z,1019.76
2018-07-02T06:01:49.166Z,1019.93
2018-07-02T06:02:49.348Z,1019.97
2018-07-02T06:03:49.328Z,1019.98
2018-07-02T06:04:49.511Z,1019.93
2018-07-02T06:05:49.295Z,1019.92
2018-07-02T06:06:49.068Z,1019.88
2018-07-02T06:07:49.294Z,1019.99
2018-07-02T06:08:49.035Z,1020.11
2018-07-02T06:09:49.218Z,1020.06
2018-07-02T06:10:49.000Z,1020.02
2018-07-02T06:11:49.181Z,1019.95
2018-07-02T06:12:49.170Z,1019.98
2018-07-02T06:22:57.179Z,1020.10
2018-07-02T06:23:56.955Z,1020.03
2018-07-02T06:27:45.766Z,1020.17
2018-07-02T06:29:27.903Z,1020.27
2018-07-02T06:30:27.951Z,1020.17
2018-07-02T06:31:27.666Z,1020.18
2018-07-02T06:32:27.853Z,1020.21
2018-07-02T06:33:27.629Z,1020.19
2018-07-02T06:35:09.974Z,1020.24
2018-07-02T06:36:09.759Z,1020.26
2018-07-02T06:37:09.737Z,1020.24
2018-07-02T06:38:09.723Z,1020.27
2018-07-02T06:39:09.701Z,1020.22
2018-07-02T06:40:09.684Z,1020.20
2018-07-02T06:41:09.872Z,1020.30
2018-07-02T06:42:09.859Z,1020.35
2018-07-02T06:43:09.840Z,1020.40
2018-07-02T06:44:09.822Z,1020.30
2018-07-02T06:45:12.428Z,1020.30
2018-07-02T06:46:13.222Z,1020.33
2018-07-02T06:47:10.377Z,1020.30
2018-07-02T06:48:09.957Z,1020.24
2018-07-02T06:49:09.739Z,1020.25
2018-07-02T06:50:09.728Z,1020.32
2018-07-02T06:51:09.707Z,1020.27
2018-07-02T06:52:09.690Z,1020.18
2018-07-02T06:53:09.677Z,1020.21
2018-07-02T06:54:09.660Z,1020.27
2018-07-02T06:55:09.440Z,1020.31
2018-07-02T06:56:09.632Z,1020.25
2018-07-02T06:57:09.409Z,1020.24
2018-07-02T06:58:09.592Z,1020.30
2018-07-02T06:59:09.578Z,1020.28
2018-07-02T07:00:09.562Z,1020.25
2018-07-02T07:01:09.546Z,1020.26
2018-07-02T07:02:09.535Z,1020.31
2018-07-02T07:03:09.518Z,1020.27
2018-07-02T07:04:09.307Z,1020.27
2018-07-02T07:05:51.644Z,1020.21
2018-07-02T07:06:51.428Z,1020.22
2018-07-02T07:07:51.411Z,1020.26
2018-07-02T07:08:51.395Z,1020.23
2018-07-02T07:09:51.382Z,1020.17
2018-07-02T07:10:51.565Z,1020.18
2018-07-02T07:11:51.552Z,1020.25
2018-07-02T07:12:51.337Z,1020.23
2018-07-02T07:13:51.322Z,1020.21
2018-07-02T07:14:51.508Z,1020.23
2018-07-02T07:15:51.495Z,1020.29
2018-07-02T07:16:51.277Z,1020.25
2018-07-02T07:17:51.262Z,1020.23
2018-07-02T07:18:51.248Z,1020.26
2018-07-02T07:19:51.235Z,1020.22
2018-07-02T07:20:51.420Z,1020.22
2018-07-02T07:21:51.407Z,1020.18
2018-07-02T07:22:51.390Z,1020.18
2018-07-02T07:23:51.375Z,1020.10
2018-07-02T07:24:51.367Z,1020.13
2018-07-02T07:25:51.205Z,1020.07
2018-07-02T07:26:51.137Z,1020.09
2018-07-02T07:27:51.122Z,1020.10
2018-07-02T07:28:51.313Z,1020.13
2018-07-02T07:29:51.294Z,1020.10
2018-07-02T07:30:51.275Z,1020.11
2018-07-02T07:31:51.261Z,1020.13
2018-07-02T07:32:51.046Z,1020.11
2018-07-02T07:33:51.235Z,1020.14
2018-07-02T07:34:51.218Z,1020.14
2018-07-02T07:35:51.004Z,1020.14
2018-07-02T07:37:35.973Z,1020.13
2018-07-02T07:38:33.337Z,1020.15
2018-07-02T07:39:33.120Z,1020.16
2018-07-02T07:40:33.308Z,1020.14
2018-07-02T07:41:33.293Z,1020.16
2018-07-02T07:42:33.279Z,1020.18
2018-07-02T07:43:33.267Z,1020.13
2018-07-02T07:44:33.253Z,1020.09
2018-07-02T07:45:33.038Z,1020.11
2018-07-02T07:46:35.854Z,1020.09
2018-07-02T07:47:33.213Z,1020.06
2018-07-02T07:49:15.359Z,1020.08
2018-07-02T07:50:15.346Z,1020.07
2018-07-02T07:52:00.114Z,1020.04
2018-07-02T07:53:00.102Z,1019.99
2018-07-02T07:53:57.465Z,1020.06
2018-07-02T07:54:57.452Z,1020.04
2018-07-02T07:55:57.435Z,1019.99
2018-07-02T07:56:57.422Z,1019.97
2018-07-02T07:57:57.207Z,1019.97
2018-07-02T07:58:57.195Z,1019.96
2018-07-02T07:59:57.385Z,1019.96
2018-07-02T08:00:57.379Z,1019.95
2018-07-02T08:01:57.357Z,1019.96
2018-07-02T08:03:39.579Z,1019.94
2018-07-02T08:04:39.291Z,1019.95
2018-07-02T08:05:39.480Z,1019.89
2018-07-02T08:06:39.265Z,1019.93
2018-07-02T08:07:39.453Z,1019.92
2018-07-02T08:08:39.236Z,1019.88
2018-07-02T08:09:39.427Z,1019.83
2018-07-02T08:10:39.417Z,1019.80
2018-07-02T08:11:39.202Z,1019.80
2018-07-02T08:13:21.552Z,1019.84
2018-07-02T08:14:21.541Z,1019.86
2018-07-02T08:15:21.535Z,1019.85
2018-07-02T08:16:22.324Z,1019.83
2018-07-02T08:17:21.507Z,1019.87
2018-07-02T08:18:21.488Z,1019.84
2018-07-02T08:19:21.475Z,1019.84
2018-07-02T08:20:21.267Z,1019.84
2018-07-02T08:21:21.251Z,1019.85
2018-07-02T08:22:21.246Z,1019.81
2018-07-02T08:23:21.225Z,1019.78
2018-07-02T08:24:21.211Z,1019.77
2018-07-02T08:25:21.202Z,1019.75
2018-07-02T08:26:21.188Z,1019.74
2018-07-02T08:27:21.181Z,1019.70
2018-07-02T08:28:21.163Z,1019.71
2018-07-02T08:29:21.156Z,1019.65
2018-07-02T08:30:21.138Z,1019.60
2018-07-02T08:31:21.132Z,1019.67
2018-07-02T08:32:21.119Z,1019.66
2018-07-02T08:33:21.107Z,1019.71
2018-07-02T08:34:21.091Z,1019.66
2018-07-02T08:35:21.287Z,1019.67
2018-07-02T08:36:21.269Z,1019.63
2018-07-02T08:37:21.258Z,1019.63
2018-07-02T08:38:21.048Z,1019.60
2018-07-02T08:39:21.032Z,1019.62
2018-07-02T08:40:21.023Z,1019.57
2018-07-02T08:41:21.260Z,1019.58
2018-07-02T08:42:21.200Z,1019.59
2018-07-02T08:43:21.190Z,1019.53
2018-07-02T08:44:20.975Z,1019.51
2018-07-02T08:47:20.942Z,1019.49
2018-07-02T08:48:20.935Z,1019.48
2018-07-02T08:49:20.918Z,1019.45
2018-07-02T08:50:20.906Z,1019.49
2018-07-02T08:51:23.717Z,1019.47
2018-07-02T08:52:20.882Z,1019.46
2018-07-02T08:53:21.073Z,1019.45
2018-07-02T08:54:21.063Z,1019.41
2018-07-02T08:56:45.375Z,1019.42
2018-07-02T08:57:45.364Z,1019.39
2018-07-02T08:59:27.523Z,1019.44
2018-07-02T09:00:27.304Z,1019.41
2018-07-02T09:01:27.289Z,1019.42
2018-07-02T09:02:27.277Z,1019.39
2018-07-02T09:03:27.267Z,1019.41
2018-07-02T09:04:27.859Z,1019.43
2018-07-02T09:05:27.445Z,1019.37
2018-07-02T09:06:27.437Z,1019.40
2018-07-02T09:07:27.427Z,1019.43
2018-07-02T09:08:27.416Z,1019.43
2018-07-02T09:09:27.405Z,1019.36
2018-07-02T09:10:27.393Z,1019.38
2018-07-02T09:11:27.380Z,1019.37
2018-07-02T09:12:27.166Z,1019.31
2018-07-02T09:13:27.156Z,1019.27
2018-07-02T09:14:27.146Z,1019.26
2018-07-02T09:15:27.338Z,1019.25
2018-07-02T09:16:27.326Z,1019.22
2018-07-02T09:17:27.316Z,1019.22
2018-07-02T09:18:27.307Z,1019.14
2018-07-02T09:19:27.302Z,1019.17
2018-07-02T09:20:27.081Z,1019.10
2018-07-02T09:21:27.073Z,1019.07
2018-07-02T09:22:27.058Z,1018.94
2018-07-02T09:23:27.050Z,1019.04
2018-07-02T09:24:27.040Z,1019.01
2018-07-02T09:25:27.229Z,1019.02
2018-07-02T09:26:27.037Z,1019.00
2018-07-02T09:27:27.008Z,1019.05
2018-07-02T09:28:26.998Z,1019.12
2018-07-02T09:29:26.985Z,1019.17
2018-07-02T09:30:26.976Z,1019.15
2018-07-02T09:31:26.965Z,1019.21
2018-07-02T09:32:26.955Z,1019.22
2018-07-02T09:33:26.943Z,1019.27
2018-07-02T09:34:26.929Z,1019.40
2018-07-02T09:35:26.917Z,1019.44
2018-07-02T09:36:26.906Z,1019.19
2018-07-02T09:37:26.899Z,1018.85
2018-07-02T09:38:26.887Z,1018.68
2018-07-02T09:39:27.008Z,1018.56
2018-07-02T09:40:27.095Z,1018.43
2018-07-02T09:41:27.057Z,1018.27
2018-07-02T09:42:27.045Z,1018.20
2018-07-02T09:43:26.831Z,1018.15
2018-07-02T09:44:26.824Z,1018.16
2018-07-02T09:45:26.971Z,1018.17
2018-07-02T09:46:27.001Z,1018.15
2018-07-02T09:47:26.789Z,1018.16
2018-07-02T09:48:26.785Z,1018.14
2018-07-02T09:49:26.779Z,1018.11
2018-07-02T09:50:26.963Z,1018.10
2018-07-02T09:51:26.949Z,1018.14
2018-07-02T09:52:26.737Z,1018.15
2018-07-02T09:53:26.932Z,1018.16
2018-07-02T09:54:26.916Z,1018.13
2018-07-02T09:55:26.907Z,1018.10
2018-07-02T09:56:26.701Z,1018.13
2018-07-02T09:57:26.682Z,1018.07
2018-07-02T09:58:26.676Z,1018.09
2018-07-02T09:59:26.866Z,1017.64
2018-07-02T10:00:26.857Z,1018.09
2018-07-02T10:01:26.645Z,1018.07
2018-07-02T10:02:26.632Z,1018.04
2018-07-02T10:03:26.621Z,1018.05
2018-07-02T10:04:26.609Z,1018.09
2018-07-02T10:05:26.600Z,1018.08
2018-07-02T10:06:26.710Z,1018.14
2018-07-02T10:07:26.784Z,1018.17
2018-07-02T10:08:26.778Z,1018.12
2018-07-02T10:09:29.387Z,1018.15
2018-07-02T10:10:26.752Z,1018.14
2018-07-02T10:11:26.944Z,1018.14
2018-07-02T10:12:26.734Z,1018.16
2018-07-02T10:13:26.726Z,1018.13
2018-07-02T10:14:26.715Z,1017.95
2018-07-02T10:15:26.710Z,1017.94
2018-07-02T10:16:26.718Z,1018.01
2018-07-02T10:17:26.688Z,1017.51
2018-07-02T10:18:26.676Z,1017.60
2018-07-02T10:19:26.676Z,1017.66
2018-07-02T10:20:26.656Z,1017.79
2018-07-02T10:21:27.858Z,1017.73
2018-07-02T10:22:26.636Z,1017.72
2018-07-02T10:23:26.632Z,1018.28
2018-07-02T10:24:26.609Z,1017.69
2018-07-02T10:25:26.599Z,1017.66
2018-07-02T10:26:29.212Z,1017.88
2018-07-02T10:27:26.577Z,1018.25
2018-07-02T10:28:26.592Z,1018.02
2018-07-02T10:29:26.592Z,1017.99
2018-07-02T10:30:26.331Z,1018.16
2018-07-02T10:31:26.496Z,1018.17
2018-07-02T10:32:26.305Z,1017.63
2018-07-02T10:33:26.297Z,1017.63
2018-07-02T10:35:50.809Z,1017.57
2018-07-02T10:36:50.790Z,1017.54
2018-07-02T10:37:50.776Z,1017.48
2018-07-02T10:38:50.761Z,1017.46
2018-07-02T10:39:50.749Z,1017.45
2018-07-02T10:40:50.730Z,1017.67
2018-07-02T10:41:54.352Z,1018.14
2018-07-02T10:42:50.504Z,1017.53
2018-07-02T10:43:50.689Z,1017.85
2018-07-02T10:45:32.846Z,1017.62
2018-07-02T10:46:32.629Z,1017.42
2018-07-02T10:47:32.807Z,1017.77
2018-07-02T10:48:32.590Z,1018.26
2018-07-02T10:49:32.770Z,1018.19
2018-07-02T10:50:32.759Z,1018.35
2018-07-02T10:51:32.744Z,1018.30
2018-07-02T10:52:32.735Z,1018.36
2018-07-02T10:53:35.537Z,1018.35
2018-07-02T10:54:35.324Z,1018.22
2018-07-02T10:56:14.844Z,1018.31
2018-07-02T10:57:14.830Z,1018.34
2018-07-02T10:58:14.816Z,1018.32
2018-07-02T10:59:14.802Z,1018.36
2018-07-02T11:00:14.789Z,1018.46
2018-07-02T11:01:14.798Z,1018.50
2018-07-02T11:02:14.764Z,1018.57
2018-07-02T11:03:14.754Z,1018.57
2018-07-02T11:04:14.745Z,1018.55
2018-07-02T11:05:56.891Z,1018.60
2018-07-02T11:07:42.886Z,1018.64
2018-07-02T11:08:39.030Z,1018.61
2018-07-02T11:09:39.018Z,1018.65
2018-07-02T11:10:38.804Z,1018.65
2018-07-02T11:11:38.996Z,1018.59
2018-07-02T11:12:38.985Z,1018.66
2018-07-02T11:13:38.974Z,1018.66
2018-07-02T11:14:38.966Z,1018.73
2018-07-02T11:15:38.958Z,1018.77
2018-07-02T11:16:38.946Z,1018.73
2018-07-02T11:17:38.936Z,1018.75
2018-07-02T11:18:38.927Z,1018.82
2018-07-02T11:19:38.915Z,1018.85
2018-07-02T11:22:03.233Z,1018.74
2018-07-02T11:23:03.230Z,1018.77
2018-07-02T11:24:03.216Z,1018.78
2018-07-02T11:25:03.001Z,1018.79
2018-07-02T11:26:03.193Z,1018.75
2018-07-02T11:27:03.183Z,1018.75
2018-07-02T11:28:03.175Z,1018.79
2018-07-02T11:29:03.170Z,1018.78
2018-07-02T11:30:02.958Z,1018.85
2018-07-02T11:31:03.154Z,1018.86
2018-07-02T11:32:02.939Z,1018.82
2018-07-02T11:33:02.930Z,1018.86
2018-07-02T11:34:02.934Z,1018.89
2018-07-02T11:35:02.913Z,1018.90
2018-07-02T11:36:03.104Z,1018.84
2018-07-02T11:37:03.095Z,1018.81
2018-07-02T11:38:03.089Z,1018.78
2018-07-02T11:39:45.244Z,1018.74
2018-07-02T11:40:45.237Z,1018.16
2018-07-02T11:41:45.030Z,1018.73
2018-07-02T11:42:45.024Z,1017.29
2018-07-02T11:43:45.010Z,1017.23
2018-07-02T11:44:45.008Z,1017.35
2018-07-02T11:45:44.992Z,1017.32
2018-07-02T11:46:45.201Z,1017.37
2018-07-02T11:47:44.975Z,1017.54
2018-07-02T11:48:44.964Z,1018.68
2018-07-02T11:49:45.001Z,1018.64
2018-07-02T11:50:44.943Z,1018.58
2018-07-02T11:51:44.931Z,1018.61
2018-07-02T11:52:44.919Z,1018.61
2018-07-02T11:53:44.908Z,1018.56
2018-07-02T11:54:44.898Z,1018.61
2018-07-02T11:55:44.892Z,1018.57
2018-07-02T11:56:44.877Z,1018.60
2018-07-02T11:57:44.866Z,1018.63
2018-07-02T11:58:44.859Z,1018.69
2018-07-02T11:59:44.847Z,1018.67
2018-07-02T12:00:44.836Z,1018.66
2018-07-02T12:01:44.829Z,1018.66
2018-07-02T12:02:44.816Z,1018.61
2018-07-02T12:03:44.806Z,1018.66
2018-07-02T12:04:44.797Z,1018.64
2018-07-02T12:05:44.788Z,1018.31
2018-07-02T12:06:44.781Z,1017.94
2018-07-02T12:07:44.768Z,1017.60
2018-07-02T12:08:44.759Z,1018.70
2018-07-02T12:09:44.756Z,1018.36
2018-07-02T12:10:44.744Z,1017.56
2018-07-02T12:11:44.731Z,1018.66
2018-07-02T12:12:44.720Z,1017.30
2018-07-02T12:13:44.716Z,1017.19
2018-07-02T12:14:44.701Z,1017.25
2018-07-02T12:15:44.688Z,1017.17
2018-07-02T12:16:44.882Z,1017.20
2018-07-02T12:17:44.666Z,1017.23
2018-07-02T12:18:44.664Z,1017.25
2018-07-02T12:19:44.864Z,1017.28
2018-07-02T12:20:44.841Z,1018.48
2018-07-02T12:21:44.621Z,1018.64
2018-07-02T12:22:44.607Z,1018.61
2018-07-02T12:23:44.593Z,1017.22
2018-07-02T12:24:44.582Z,1017.59
2018-07-02T12:25:44.570Z,1016.99
2018-07-02T12:26:44.766Z,1017.12
2018-07-02T12:27:44.748Z,1017.22
2018-07-02T12:28:44.734Z,1017.28
2018-07-02T12:29:48.353Z,1017.10
2018-07-02T12:30:44.711Z,1017.60
2018-07-02T12:31:44.700Z,1018.48
2018-07-02T12:32:44.685Z,1018.50
2018-07-02T12:33:44.467Z,1018.46